Time,TemperatureF,DewpointF,PressureIn,WindDirection,WindDirectionDegrees,WindSpeedMPH,WindSpeedGustMPH,Humidity,HourlyPrecipIn,Conditions,Clouds,dailyrainin,SoftwareType,DateUTC
2013-05-16 00:00:00,73.5,37.9,29.97,North,0,0.5,1.2,27,-99.99,,,-99.99,tws,2013-05-16 07:00:00,
2013-05-16 00:10:00,73.1,38.2,29.98,NW,315,1.6,2.4,27,-99.99,,,-99.99,tws,2013-05-16 07:10:00,
2013-05-16 00:20:00,72.6,38.3,29.97,NW,315,2.6,3.3,28,-99.99,,,-99.99,tws,2013-05-16 07:20:00,
2013-05-16 00:30:00,72.2,38.4,29.97,NW,315,2.3,3.0,28,-99.99,,,-99.99,tws,2013-05-16 07:30:00,
2013-05-16 00:40:00,71.8,38.2,29.97,NW,315,1.5,2.4,29,-99.99,,,-99.99,tws,2013-05-16 07:40:00,
2013-05-16 00:50:00,71.6,38.1,29.97,NW,315,2.7,3.4,29,-99.99,,,-99.99,tws,2013-05-16 07:50:00,
2013-05-16 01:00:00,71.3,37.8,29.98,NW,315,1.7,2.4,29,-99.99,,,-99.99,tws,2013-05-16 08:00:00,
2013-05-16 01:10:00,71.2,37.8,29.97,SW,225,1.1,2.2,29,-99.99,,,-99.99,tws,2013-05-16 08:10:00,
2013-05-16 01:20:00,71.0,37.0,29.97,West,270,0.9,1.7,28,-99.99,,,-99.99,tws,2013-05-16 08:20:00,
2013-05-16 01:30:00,70.8,36.9,29.97,West,270,0.0,0.0,28,-99.99,,,-99.99,tws,2013-05-16 08:30:00,
2013-05-16 01:40:00,70.6,36.7,29.97,WNW,292,0.0,0.0,28,-99.99,,,-99.99,tws,2013-05-16 08:40:00,
2013-05-16 01:50:00,70.5,36.7,29.95,WSW,247,0.0,0.0,28,-99.99,,,-99.99,tws,2013-05-16 08:50:00,
2013-05-16 02:00:00,70.1,36.2,29.95,West,270,0.0,0.0,28,-99.99,,,-99.99,tws,2013-05-16 09:00:00,
2013-05-16 02:10:00,69.8,36.6,29.96,NW,315,0.8,2.3,29,-99.99,,,-99.99,tws,2013-05-16 09:10:00,
2013-05-16 02:20:00,69.4,36.9,29.95,NW,315,1.4,2.0,30,-99.99,,,-99.99,tws,2013-05-16 09:20:00,
2013-05-16 02:30:00,68.9,37.1,29.95,NW,315,1.9,2.6,30,-99.99,,,-99.99,tws,2013-05-16 09:30:00,
2013-05-16 02:40:00,68.5,36.9,29.95,NW,315,0.7,1.7,30,-99.99,,,-99.99,tws,2013-05-16 09:40:00,
2013-05-16 02:50:00,68.2,36.8,29.96,NW,315,0.0,0.0,31,-99.99,,,-99.99,tws,2013-05-16 09:50:00,
2013-05-16 03:00:00,67.8,36.4,29.96,NW,315,1.4,2.8,31,-99.99,,,-99.99,tws,2013-05-16 10:00:00,
2013-05-16 03:10:00,67.5,36.2,29.96,NW,315,3.1,3.6,31,-99.99,,,-99.99,tws,2013-05-16 10:10:00,
2013-05-16 03:20:00,67.3,36.5,29.96,NW,315,3.0,3.5,31,-99.99,,,-99.99,tws,2013-05-16 10:20:00,
2013-05-16 03:30:00,67.3,36.6,29.96,NW,315,2.2,2.7,31,-99.99,,,-99.99,tws,2013-05-16 10:30:00,
2013-05-16 03:40:00,67.1,36.9,29.96,WNW,292,1.0,1.9,32,-99.99,,,-99.99,tws,2013-05-16 10:40:00,
2013-05-16 03:50:00,66.9,36.7,29.96,West,270,1.2,2.1,32,-99.99,,,-99.99,tws,2013-05-16 10:50:00,
2013-05-16 04:00:00,66.6,36.5,29.96,WNW,292,0.6,1.4,32,-99.99,,,-99.99,tws,2013-05-16 11:00:00,
2013-05-16 04:10:00,66.1,36.1,29.95,NW,315,1.0,1.8,32,-99.99,,,-99.99,tws,2013-05-16 11:10:00,
2013-05-16 04:20:00,65.7,35.5,29.96,NNW,337,2.3,3.3,32,-99.99,,,-99.99,tws,2013-05-16 11:20:00,
2013-05-16 04:30:00,65.4,35.2,29.95,West,270,1.8,2.8,32,-99.99,,,-99.99,tws,2013-05-16 11:30:00,
2013-05-16 04:40:00,65.4,35.2,29.96,NW,315,0.7,1.9,32,-99.99,,,-99.99,tws,2013-05-16 11:40:00,
2013-05-16 04:50:00,65.3,35.4,29.95,WSW,247,0.7,2.5,32,-99.99,,,-99.99,tws,2013-05-16 11:50:00,
2013-05-16 05:00:00,65.0,35.5,29.95,West,270,1.6,2.4,32,-99.99,,,-99.99,tws,2013-05-16 12:00:00,
2013-05-16 05:10:00,64.8,35.6,29.95,NW,315,1.3,2.2,33,-99.99,,,-99.99,tws,2013-05-16 12:10:00,
2013-05-16 05:20:00,64.5,35.9,29.96,West,270,0.9,2.0,34,-99.99,,,-99.99,tws,2013-05-16 12:20:00,
2013-05-16 05:30:00,64.3,35.9,29.96,West,270,2.1,2.9,34,-99.99,,,-99.99,tws,2013-05-16 12:30:00,
2013-05-16 05:40:00,64.0,35.6,29.96,NW,315,3.2,3.9,34,-99.99,,,-99.99,tws,2013-05-16 12:40:00,
2013-05-16 05:50:00,63.8,35.7,29.96,NW,315,1.7,2.9,34,-99.99,,,-99.99,tws,2013-05-16 12:50:00,
2013-05-16 06:00:00,63.6,36.2,29.96,NNW,337,1.5,3.6,35,-99.99,,,-99.99,tws,2013-05-16 13:00:00,
2013-05-16 06:10:00,63.5,36.9,29.96,SE,135,0.5,1.9,36,-99.99,,,-99.99,tws,2013-05-16 13:10:00,
2013-05-16 06:20:00,63.5,38.3,29.97,West,270,0.0,0.0,38,-99.99,,,-99.99,tws,2013-05-16 13:20:00,
2013-05-16 06:30:00,63.4,39.6,29.97,NE,45,0.0,0.0,41,-99.99,,,-99.99,tws,2013-05-16 13:30:00,
2013-05-16 06:40:00,63.5,40.2,29.97,SE,135,0.4,1.6,42,-99.99,,,-99.99,tws,2013-05-16 13:40:00,
2013-05-16 06:50:00,63.7,40.2,29.97,NE,45,0.0,0.0,41,-99.99,,,-99.99,tws,2013-05-16 13:50:00,
2013-05-16 07:00:00,64.1,40.4,29.98,North,0,0.0,0.0,41,-99.99,,,-99.99,tws,2013-05-16 14:00:00,
2013-05-16 07:10:00,64.6,40.5,29.98,NNE,22,0.0,0.1,40,-99.99,,,-99.99,tws,2013-05-16 14:10:00,
2013-05-16 07:20:00,65.4,40.9,29.98,North,0,0.6,1.6,40,-99.99,,,-99.99,tws,2013-05-16 14:20:00,
2013-05-16 07:30:00,66.4,41.1,29.98,East,90,0.0,0.0,39,-99.99,,,-99.99,tws,2013-05-16 14:30:00,
2013-05-16 07:40:00,67.6,40.7,29.98,North,0,1.5,3.5,37,-99.99,,,-99.99,tws,2013-05-16 14:40:00,
2013-05-16 07:50:00,69.1,40.3,29.98,NE,45,1.5,3.6,34,-99.99,,,-99.99,tws,2013-05-16 14:50:00,
2013-05-16 08:00:00,70.8,40.0,29.98,NE,45,2.7,4.3,32,-99.99,,,-99.99,tws,2013-05-16 15:00:00,
2013-05-16 08:10:00,72.6,40.1,29.98,East,90,3.3,4.5,30,-99.99,,,-99.99,tws,2013-05-16 15:10:00,
2013-05-16 08:20:00,74.4,40.1,29.98,East,90,4.4,5.9,28,-99.99,,,-99.99,tws,2013-05-16 15:20:00,
2013-05-16 08:30:00,76.6,39.7,29.98,East,90,5.7,6.6,26,-99.99,,,-99.99,tws,2013-05-16 15:30:00,
2013-05-16 08:40:00,78.8,39.2,29.99,ESE,112,6.1,8.7,23,-99.99,,,-99.99,tws,2013-05-16 15:40:00,
2013-05-16 08:50:00,80.4,39.0,29.99,NE,45,6.7,7.7,22,-99.99,,,-99.99,tws,2013-05-16 15:50:00,
2013-05-16 09:00:00,81.6,39.3,29.98,ESE,112,6.4,8.6,21,-99.99,,,-99.99,tws,2013-05-16 16:00:00,
2013-05-16 09:10:00,82.5,39.4,30.00,ESE,112,6.6,7.8,21,-99.99,,,-99.99,tws,2013-05-16 16:10:00,
2013-05-16 09:20:00,83.6,39.5,29.99,SE,135,6.1,7.9,20,-99.99,,,-99.99,tws,2013-05-16 16:20:00,
2013-05-16 09:30:00,84.4,39.5,29.99,ESE,112,5.4,7.5,20,-99.99,,,-99.99,tws,2013-05-16 16:30:00,
2013-05-16 09:40:00,85.0,39.5,29.98,ENE,67,5.9,8.6,19,-99.99,,,-99.99,tws,2013-05-16 16:40:00,
2013-05-16 09:50:00,85.6,38.9,29.99,SE,135,5.8,7.1,18,-99.99,,,-99.99,tws,2013-05-16 16:50:00,
2013-05-16 10:00:00,86.4,40.2,29.99,East,90,4.8,6.7,19,-99.99,,,-99.99,tws,2013-05-16 17:00:00,
2013-05-16 10:10:00,87.1,40.2,29.99,East,90,5.0,8.2,18,-99.99,,,-99.99,tws,2013-05-16 17:10:00,
2013-05-16 10:20:00,87.3,40.6,29.98,East,90,5.3,7.9,18,-99.99,,,-99.99,tws,2013-05-16 17:20:00,
2013-05-16 10:30:00,87.2,40.3,29.98,SE,135,5.4,8.0,18,-99.99,,,-99.99,tws,2013-05-16 17:30:00,
2013-05-16 10:40:00,87.4,40.6,29.99,East,90,5.6,9.4,18,-99.99,,,-99.99,tws,2013-05-16 17:40:00,
2013-05-16 10:50:00,88.1,40.4,29.97,SE,135,5.9,8.0,18,-99.99,,,-99.99,tws,2013-05-16 17:50:00,
2013-05-16 11:00:00,88.5,40.2,29.96,NE,45,6.5,8.3,18,-99.99,,,-99.99,tws,2013-05-16 18:00:00,
2013-05-16 11:10:00,88.6,40.8,29.95,ESE,112,4.0,5.6,18,-99.99,,,-99.99,tws,2013-05-16 18:10:00,
2013-05-16 11:20:00,88.7,40.6,29.94,NE,45,7.0,8.8,18,-99.99,,,-99.99,tws,2013-05-16 18:20:00,
2013-05-16 11:30:00,88.8,40.1,29.93,ESE,112,5.9,8.7,17,-99.99,,,-99.99,tws,2013-05-16 18:30:00,
2013-05-16 11:40:00,89.0,40.9,29.93,NE,45,4.7,8.1,18,-99.99,,,-99.99,tws,2013-05-16 18:40:00,
2013-05-16 11:50:00,89.4,40.7,29.93,NNE,22,5.2,9.7,17,-99.99,,,-99.99,tws,2013-05-16 18:50:00,
2013-05-16 12:00:00,89.8,40.8,29.93,South,180,6.2,12.0,17,-99.99,,,-99.99,tws,2013-05-16 19:00:00,
2013-05-16 12:10:00,90.6,39.5,29.93,SE,135,6.4,10.0,16,-99.99,,,-99.99,tws,2013-05-16 19:10:00,
2013-05-16 12:20:00,91.1,39.8,29.94,East,90,5.3,8.5,16,-99.99,,,-99.99,tws,2013-05-16 19:20:00,
2013-05-16 12:30:00,91.5,39.9,29.93,ENE,67,5.0,6.5,16,-99.99,,,-99.99,tws,2013-05-16 19:30:00,
2013-05-16 12:40:00,91.8,39.8,29.93,ESE,112,6.4,9.4,15,-99.99,,,-99.99,tws,2013-05-16 19:40:00,
2013-05-16 12:50:00,92.1,39.3,29.92,East,90,6.5,7.7,15,-99.99,,,-99.99,tws,2013-05-16 19:50:00,
2013-05-16 13:00:00,92.5,38.4,29.93,East,90,8.5,11.0,14,-99.99,,,-99.99,tws,2013-05-16 20:00:00,
2013-05-16 13:10:00,92.7,37.5,29.91,East,90,5.5,7.2,14,-99.99,,,-99.99,tws,2013-05-16 20:10:00,
2013-05-16 13:20:00,92.8,38.1,29.91,SE,135,6.5,10.8,14,-99.99,,,-99.99,tws,2013-05-16 20:20:00,
2013-05-16 13:30:00,92.9,37.5,29.91,SSE,157,6.5,8.9,14,-99.99,,,-99.99,tws,2013-05-16 20:30:00,
2013-05-16 13:40:00,93.1,38.0,29.91,SSE,157,8.1,11.6,14,-99.99,,,-99.99,tws,2013-05-16 20:40:00,
2013-05-16 13:50:00,93.3,39.0,29.89,West,270,5.4,6.8,14,-99.99,,,-99.99,tws,2013-05-16 20:50:00,
2013-05-16 14:00:00,93.7,39.6,29.89,South,180,5.3,10.3,14,-99.99,,,-99.99,tws,2013-05-16 21:00:00,
2013-05-16 14:10:00,93.9,38.4,29.89,SSW,202,7.5,9.6,14,-99.99,,,-99.99,tws,2013-05-16 21:10:00,
2013-05-16 14:20:00,94.0,37.8,29.89,ESE,112,4.9,7.8,13,-99.99,,,-99.99,tws,2013-05-16 21:20:00,
2013-05-16 14:30:00,94.2,38.6,29.88,East,90,6.7,10.0,14,-99.99,,,-99.99,tws,2013-05-16 21:30:00,
2013-05-16 14:40:00,94.4,38.2,29.88,North,360,9.0,12.8,13,-99.99,,,-99.99,tws,2013-05-16 21:40:00,
2013-05-16 14:50:00,94.8,38.3,29.86,SW,225,4.9,9.9,13,-99.99,,,-99.99,tws,2013-05-16 21:50:00,
2013-05-16 15:00:00,95.1,38.5,29.84,SSE,157,6.4,8.6,13,-99.99,,,-99.99,tws,2013-05-16 22:00:00,
2013-05-16 15:10:00,95.2,38.7,29.84,East,90,6.5,9.7,13,-99.99,,,-99.99,tws,2013-05-16 22:10:00,
2013-05-16 15:20:00,95.4,38.3,29.83,East,90,7.3,8.5,13,-99.99,,,-99.99,tws,2013-05-16 22:20:00,
2013-05-16 15:30:00,95.5,38.5,29.85,East,90,5.9,8.5,13,-99.99,,,-99.99,tws,2013-05-16 22:30:00,
2013-05-16 15:40:00,95.9,38.8,29.82,NNE,22,4.5,6.4,13,-99.99,,,-99.99,tws,2013-05-16 22:40:00,
2013-05-16 15:50:00,96.4,38.6,29.84,SE,135,5.7,8.8,13,-99.99,,,-99.99,tws,2013-05-16 22:50:00,
2013-05-16 16:00:00,96.5,37.9,29.83,East,90,5.5,7.5,12,-99.99,,,-99.99,tws,2013-05-16 23:00:00,
2013-05-16 16:10:00,96.2,38.8,29.83,South,180,6.6,11.4,13,-99.99,,,-99.99,tws,2013-05-16 23:10:00,
2013-05-16 16:20:00,96.1,37.6,29.83,South,180,9.8,12.9,12,-99.99,,,-99.99,tws,2013-05-16 23:20:00,
2013-05-16 16:30:00,95.8,37.3,29.82,SE,135,4.6,8.5,12,-99.99,,,-99.99,tws,2013-05-16 23:30:00,
2013-05-16 16:40:00,95.7,37.9,29.81,SE,135,6.1,9.3,13,-99.99,,,-99.99,tws,2013-05-16 23:40:00,
2013-05-16 16:50:00,95.5,37.1,29.82,East,90,7.2,9.9,12,-99.99,,,-99.99,tws,2013-05-16 23:50:00,
2013-05-16 17:00:00,95.2,37.4,29.81,SSE,157,6.0,7.9,13,-99.99,,,-99.99,tws,2013-05-17 00:00:00,
2013-05-16 17:10:00,94.9,36.8,29.80,East,90,6.4,9.6,12,-99.99,,,-99.99,tws,2013-05-17 00:10:00,
2013-05-16 17:20:00,94.3,36.4,29.80,SE,135,6.3,12.4,12,-99.99,,,-99.99,tws,2013-05-17 00:20:00,
2013-05-16 17:30:00,93.7,35.9,29.80,SE,135,8.7,11.0,12,-99.99,,,-99.99,tws,2013-05-17 00:30:00,
2013-05-16 17:40:00,93.2,35.7,29.80,SE,135,8.6,10.5,12,-99.99,,,-99.99,tws,2013-05-17 00:40:00,
2013-05-16 17:50:00,92.8,34.7,29.80,South,180,7.3,10.2,12,-99.99,,,-99.99,tws,2013-05-17 00:50:00,
2013-05-16 18:00:00,92.3,34.9,29.80,SE,135,6.8,8.8,12,-99.99,,,-99.99,tws,2013-05-17 01:00:00,
2013-05-16 18:10:00,92.1,34.6,29.80,SSE,157,7.0,9.3,12,-99.99,,,-99.99,tws,2013-05-17 01:10:00,
2013-05-16 18:20:00,91.6,33.6,29.79,South,180,8.4,10.8,12,-99.99,,,-99.99,tws,2013-05-17 01:20:00,
2013-05-16 18:30:00,91.0,33.4,29.79,SW,225,6.8,9.6,12,-99.99,,,-99.99,tws,2013-05-17 01:30:00,
2013-05-16 18:40:00,90.5,33.2,29.80,SE,135,7.4,10.8,12,-99.99,,,-99.99,tws,2013-05-17 01:40:00,
2013-05-16 18:50:00,89.9,32.5,29.80,SW,225,9.1,10.6,12,-99.99,,,-99.99,tws,2013-05-17 01:50:00,
2013-05-16 19:00:00,89.2,33.5,29.81,SW,225,9.6,12.4,13,-99.99,,,-99.99,tws,2013-05-17 02:00:00,
2013-05-16 19:10:00,88.3,33.7,29.83,SW,225,7.0,9.9,13,-99.99,,,-99.99,tws,2013-05-17 02:10:00,
2013-05-16 19:20:00,87.6,33.7,29.82,SW,225,7.8,9.3,14,-99.99,,,-99.99,tws,2013-05-17 02:20:00,
2013-05-16 19:30:00,87.0,33.6,29.82,South,180,7.1,9.6,14,-99.99,,,-99.99,tws,2013-05-17 02:30:00,
2013-05-16 19:40:00,86.3,33.5,29.82,South,180,6.6,8.3,14,-99.99,,,-99.99,tws,2013-05-17 02:40:00,
2013-05-16 19:50:00,85.7,33.4,29.82,South,180,5.5,6.9,15,-99.99,,,-99.99,tws,2013-05-17 02:50:00,
2013-05-16 20:00:00,85.0,33.9,29.83,South,180,5.2,7.8,15,-99.99,,,-99.99,tws,2013-05-17 03:00:00,
2013-05-16 20:10:00,84.3,33.9,29.83,SE,135,5.7,7.2,16,-99.99,,,-99.99,tws,2013-05-17 03:10:00,
2013-05-16 20:20:00,83.8,34.2,29.84,South,180,4.8,5.8,16,-99.99,,,-99.99,tws,2013-05-17 03:20:00,
2013-05-16 20:30:00,83.2,34.3,29.85,SW,225,4.0,5.0,16,-99.99,,,-99.99,tws,2013-05-17 03:30:00,
2013-05-16 20:40:00,82.7,34.2,29.87,SSW,202,3.3,4.8,17,-99.99,,,-99.99,tws,2013-05-17 03:40:00,
2013-05-16 20:50:00,82.2,34.9,29.87,North,0,1.3,3.6,17,-99.99,,,-99.99,tws,2013-05-17 03:50:00,
2013-05-16 21:00:00,81.6,37.0,29.89,SE,135,0.4,1.6,19,-99.99,,,-99.99,tws,2013-05-17 04:00:00,
2013-05-16 21:10:00,80.8,36.5,29.89,North,0,0.3,1.3,20,-99.99,,,-99.99,tws,2013-05-17 04:10:00,
2013-05-16 21:20:00,79.9,36.4,29.90,East,90,0.1,0.9,20,-99.99,,,-99.99,tws,2013-05-17 04:20:00,
2013-05-16 21:30:00,79.3,36.8,29.90,NW,315,0.2,1.0,21,-99.99,,,-99.99,tws,2013-05-17 04:30:00,
2013-05-16 21:40:00,78.6,36.4,29.91,South,180,1.0,2.1,21,-99.99,,,-99.99,tws,2013-05-17 04:40:00,
2013-05-16 21:50:00,78.1,36.2,29.92,South,180,2.1,4.0,21,-99.99,,,-99.99,tws,2013-05-17 04:50:00,
2013-05-16 22:00:00,78.0,36.5,29.92,SE,135,0.3,1.1,21,-99.99,,,-99.99,tws,2013-05-17 05:00:00,
2013-05-16 22:10:00,77.8,37.5,29.91,South,180,0.4,2.2,23,-99.99,,,-99.99,tws,2013-05-17 05:10:00,
2013-05-16 22:20:00,77.1,35.9,29.92,SW,225,2.5,3.3,22,-99.99,,,-99.99,tws,2013-05-17 05:20:00,
2013-05-16 22:30:00,76.8,35.0,29.92,SSW,202,1.5,3.5,21,-99.99,,,-99.99,tws,2013-05-17 05:30:00,
2013-05-16 22:40:00,76.6,34.4,29.93,SW,225,2.9,4.2,21,-99.99,,,-99.99,tws,2013-05-17 05:40:00,
2013-05-16 22:50:00,76.5,35.0,29.93,NW,315,0.4,1.6,21,-99.99,,,-99.99,tws,2013-05-17 05:50:00,
2013-05-16 23:00:00,76.1,36.1,29.92,NW,315,0.0,0.0,23,-99.99,,,-99.99,tws,2013-05-17 06:00:00,
2013-05-16 23:10:00,75.3,35.5,29.93,WNW,292,0.0,0.0,23,-99.99,,,-99.99,tws,2013-05-17 06:10:00,
2013-05-16 23:20:00,74.5,35.5,29.93,NW,315,0.3,1.6,23,-99.99,,,-99.99,tws,2013-05-17 06:20:00,
2013-05-16 23:30:00,73.9,36.3,29.93,WSW,247,0.0,0.0,25,-99.99,,,-99.99,tws,2013-05-17 06:30:00,
2013-05-16 23:40:00,73.4,36.2,29.92,West,270,0.5,1.7,25,-99.99,,,-99.99,tws,2013-05-17 06:40:00,
2013-05-16 23:50:00,73.0,35.4,29.92,West,270,0.0,0.0,25,-99.99,,,-99.99,tws,2013-05-17 06:50:00,